createdAt,value
2022-08-03T00:00:00.362Z,3.21
2022-08-03T00:01:03.339Z,4.12
2022-08-03T00:02:06.521Z,5.45
2022-08-03T00:03:11.110Z,2.54
2022-08-03T00:04:14.123Z,2.81
2022-08-03T00:05:16.993Z,2.40
2022-08-03T00:06:19.999Z,2.47
2022-08-03T00:07:22.848Z,2.55
2022-08-03T00:08:28.488Z,2.77
2022-08-03T00:09:35.866Z,2.36
2022-08-03T00:10:36.282Z,3.97
2022-08-03T00:11:38.972Z,1.85
2022-08-03T00:12:41.717Z,1.15
2022-08-03T00:13:44.491Z,1.74
2022-08-03T00:14:47.374Z,2.78
2022-08-03T00:15:50.657Z,1.82
2022-08-03T00:16:53.440Z,1.75
2022-08-03T00:17:56.195Z,1.54
2022-08-03T00:19:00.780Z,1.45
2022-08-03T00:20:03.582Z,2.04
2022-08-03T00:21:06.253Z,3.11
2022-08-03T00:22:09.073Z,2.11
2022-08-03T00:23:11.800Z,2.02
2022-08-03T00:24:14.782Z,2.42
2022-08-03T00:25:17.564Z,1.48
2022-08-03T00:26:20.424Z,1.10
2022-08-03T00:27:23.408Z,1.62
2022-08-03T00:28:26.389Z,2.28
2022-08-03T00:29:30.076Z,1.66
2022-08-03T00:30:32.944Z,2.68
2022-08-03T00:31:44.932Z,2.75
2022-08-03T00:32:45.081Z,2.35
2022-08-03T00:33:57.981Z,1.36
2022-08-03T00:34:58.626Z,2.05
2022-08-03T00:35:53.058Z,1.80
2022-08-03T00:36:56.127Z,2.27
2022-08-03T00:37:59.115Z,2.71
2022-08-03T00:39:02.189Z,1.45
2022-08-03T00:40:05.570Z,1.99
2022-08-03T00:41:08.552Z,2.65
2022-08-03T00:42:11.533Z,2.04
2022-08-03T00:43:14.503Z,2.83
2022-08-03T00:44:20.148Z,3.17
2022-08-03T00:45:23.126Z,2.45
2022-08-03T00:46:25.999Z,2.42
2022-08-03T00:47:28.976Z,2.15
2022-08-03T00:48:33.785Z,2.62
2022-08-03T00:49:36.114Z,3.16
2022-08-03T00:50:39.029Z,2.57
2022-08-03T00:51:41.700Z,2.28
2022-08-03T00:52:44.480Z,2.98
2022-08-03T00:53:47.084Z,7.46
2022-08-03T00:54:49.713Z,3.26
2022-08-03T00:55:52.379Z,2.29
2022-08-03T00:56:59.618Z,1.87
2022-08-03T00:57:59.464Z,1.84
2022-08-03T00:59:02.233Z,1.64
2022-08-03T01:00:05.010Z,1.71
2022-08-03T01:01:07.824Z,2.64
2022-08-03T01:02:10.672Z,2.77
2022-08-03T01:03:13.443Z,1.97
2022-08-03T01:04:16.103Z,3.69
2022-08-03T01:05:18.868Z,2.60
2022-08-03T01:06:21.639Z,2.53
2022-08-03T01:07:24.411Z,1.77
2022-08-03T01:08:27.180Z,2.92
2022-08-03T01:09:29.977Z,4.77
2022-08-03T01:10:32.943Z,1.68
2022-08-03T01:11:35.609Z,2.12
2022-08-03T01:12:39.911Z,3.36
2022-08-03T01:14:04.531Z,1.88
2022-08-03T01:14:46.891Z,2.53
2022-08-03T01:15:49.559Z,1.20
2022-08-03T01:16:52.343Z,1.86
2022-08-03T01:17:55.207Z,1.57
2022-08-03T01:18:57.984Z,3.53
2022-08-03T01:20:00.755Z,1.82
2022-08-03T01:21:04.646Z,2.24
2022-08-03T01:22:08.877Z,1.89
2022-08-03T01:23:11.429Z,2.50
2022-08-03T01:24:14.093Z,2.33
2022-08-03T01:25:16.561Z,3.45
2022-08-03T01:26:19.329Z,2.95
2022-08-03T01:27:22.204Z,2.79
2022-08-03T01:28:25.382Z,1.59
2022-08-03T01:29:28.371Z,1.93
2022-08-03T01:30:31.231Z,2.46
2022-08-03T01:31:34.111Z,1.68
2022-08-03T01:32:58.562Z,2.05
2022-08-03T01:33:43.040Z,2.56
2022-08-03T01:34:45.707Z,2.06
2022-08-03T01:35:48.370Z,1.57
2022-08-03T01:36:51.253Z,1.75
2022-08-03T01:37:53.922Z,1.92
2022-08-03T01:38:56.703Z,2.65
2022-08-03T01:39:59.665Z,2.25
2022-08-03T01:42:21.081Z,1.74
2022-08-03T01:44:28.275Z,1.67
2022-08-03T01:44:30.930Z,1.57
2022-08-03T01:45:34.202Z,3.01
2022-08-03T01:46:36.686Z,5.01
2022-08-03T01:47:39.550Z,2.37
2022-08-03T01:48:42.326Z,3.15
2022-08-03T01:49:45.083Z,1.65
2022-08-03T01:50:47.769Z,2.25
2022-08-03T01:52:04.119Z,1.84
2022-08-03T01:52:54.946Z,2.64
2022-08-03T01:53:57.827Z,3.52
2022-08-03T01:55:00.595Z,2.39
2022-08-03T01:56:03.580Z,2.21
2022-08-03T01:57:06.238Z,2.08
2022-08-03T01:58:08.912Z,3.87
2022-08-03T01:59:11.792Z,2.38
2022-08-03T02:00:14.566Z,3.36
2022-08-03T02:01:17.441Z,2.89
2022-08-03T02:02:32.832Z,3.86
2022-08-03T02:03:24.618Z,2.05
2022-08-03T02:04:27.488Z,2.11
2022-08-03T02:05:30.161Z,2.12
2022-08-03T02:07:01.376Z,3.48
2022-08-03T02:07:37.241Z,2.90
2022-08-03T02:08:47.906Z,6.74
2022-08-03T02:09:50.562Z,1.87
2022-08-03T02:10:53.343Z,2.47
2022-08-03T02:11:56.014Z,3.38
2022-08-03T02:12:58.692Z,1.89
2022-08-03T02:14:01.347Z,2.62
2022-08-03T02:15:04.221Z,4.22
2022-08-03T02:16:07.421Z,2.25
2022-08-03T02:17:10.180Z,3.26
2022-08-03T02:18:12.853Z,3.27
2022-08-03T02:19:15.616Z,5.25
2022-08-03T02:20:18.387Z,3.14
2022-08-03T02:21:56.286Z,3.38
2022-08-03T02:22:25.474Z,5.76
2022-08-03T02:23:28.139Z,3.62
2022-08-03T02:24:30.914Z,4.73
2022-08-03T02:25:33.580Z,2.72
2022-08-03T02:26:36.352Z,3.88
2022-08-03T02:27:43.341Z,5.42
2022-08-03T02:28:43.438Z,7.37
2022-08-03T02:29:46.208Z,3.14
2022-08-03T02:30:51.928Z,3.35
2022-08-03T02:31:53.285Z,3.79
2022-08-03T02:32:55.972Z,3.78
2022-08-03T02:33:58.883Z,5.33
2022-08-03T02:35:01.510Z,2.12
2022-08-03T02:36:04.180Z,2.18
2022-08-03T02:37:06.941Z,3.81
2022-08-03T02:38:09.716Z,3.93
2022-08-03T02:39:12.486Z,1.74
2022-08-03T02:40:15.261Z,2.32
2022-08-03T02:41:17.927Z,3.65
2022-08-03T02:42:20.706Z,5.36
2022-08-03T02:43:24.912Z,4.01
2022-08-03T02:44:27.781Z,3.02
2022-08-03T02:45:30.653Z,1.90
2022-08-03T02:46:33.437Z,2.86
2022-08-03T02:47:53.248Z,2.28
2022-08-03T02:48:40.509Z,2.80
2022-08-03T02:49:51.246Z,1.91
2022-08-03T02:50:47.699Z,4.21
2022-08-03T02:51:50.466Z,3.63
2022-08-03T02:52:53.369Z,3.36
2022-08-03T02:53:56.011Z,3.72
2022-08-03T02:54:58.780Z,3.46
2022-08-03T02:56:01.661Z,1.89
2022-08-03T02:57:04.537Z,2.08
2022-08-03T02:58:07.198Z,1.47
2022-08-03T02:59:09.869Z,1.39
2022-08-03T03:00:12.642Z,1.40
2022-08-03T03:01:15.561Z,2.14
2022-08-03T03:02:18.390Z,3.61
2022-08-03T03:03:21.364Z,4.16
2022-08-03T03:04:25.706Z,3.41
2022-08-03T03:05:54.626Z,2.95
2022-08-03T03:06:32.857Z,3.09
2022-08-03T03:07:51.256Z,2.22
2022-08-03T03:08:39.943Z,2.44
2022-08-03T03:09:43.331Z,2.76
2022-08-03T03:10:46.208Z,1.96
2022-08-03T03:11:48.971Z,2.18
2022-08-03T03:12:51.644Z,1.65
2022-08-03T03:13:54.412Z,2.89
2022-08-03T03:14:57.096Z,2.53
2022-08-03T03:15:59.755Z,2.52
2022-08-03T03:17:02.429Z,3.24
2022-08-03T03:18:05.192Z,4.25
2022-08-03T03:19:07.974Z,1.66
2022-08-03T03:20:10.746Z,1.71
2022-08-03T03:21:13.521Z,1.24
2022-08-03T03:22:16.509Z,2.42
2022-08-03T03:23:19.370Z,6.35
2022-08-03T03:24:22.031Z,16.70
2022-08-03T03:25:24.711Z,4.57
2022-08-03T03:26:27.376Z,2.64
2022-08-03T03:27:30.057Z,4.45
2022-08-03T03:28:32.713Z,2.36
2022-08-03T03:29:39.289Z,1.99
2022-08-03T03:30:39.904Z,1.99
2022-08-03T03:31:42.566Z,1.37
2022-08-03T03:32:45.446Z,1.63
2022-08-03T03:33:48.110Z,1.18
2022-08-03T03:34:51.189Z,1.85
2022-08-03T03:35:54.063Z,3.30
2022-08-03T03:36:56.741Z,3.10
2022-08-03T03:37:59.505Z,2.67
2022-08-03T03:39:15.452Z,2.54
2022-08-03T03:40:06.492Z,3.20
2022-08-03T03:41:09.256Z,2.95
2022-08-03T03:42:12.136Z,2.23
2022-08-03T03:43:14.797Z,1.92
2022-08-03T03:44:17.485Z,2.94
2022-08-03T03:45:20.149Z,1.57
2022-08-03T03:46:22.906Z,1.49
2022-08-03T03:47:32.305Z,1.96
2022-08-03T03:48:29.990Z,2.03
2022-08-03T03:49:34.373Z,2.79
2022-08-03T03:50:37.067Z,2.17
2022-08-03T03:51:39.746Z,1.39
2022-08-03T03:52:42.417Z,1.35
2022-08-03T03:53:45.087Z,3.32
2022-08-03T03:54:48.060Z,2.63
2022-08-03T03:55:59.518Z,3.38
2022-08-03T03:56:55.246Z,1.51
2022-08-03T03:57:58.012Z,1.53
2022-08-03T03:59:00.786Z,1.79
2022-08-03T04:00:03.771Z,1.86
2022-08-03T04:01:06.689Z,1.83
2022-08-03T04:02:09.481Z,2.22
2022-08-03T04:03:12.201Z,1.92
2022-08-03T04:04:14.964Z,3.19
2022-08-03T04:05:19.266Z,2.44
2022-08-03T04:06:22.042Z,3.42
2022-08-03T04:07:25.017Z,3.56
2022-08-03T04:08:27.685Z,2.29
2022-08-03T04:09:30.458Z,3.09
2022-08-03T04:10:33.127Z,2.12
2022-08-03T04:11:35.898Z,2.87
2022-08-03T04:12:38.665Z,1.58
2022-08-03T04:13:43.086Z,2.41
2022-08-03T04:14:46.061Z,1.92
2022-08-03T04:15:48.728Z,1.97
2022-08-03T04:16:51.397Z,2.17
2022-08-03T04:17:54.267Z,1.58
2022-08-03T04:18:57.052Z,1.20
2022-08-03T04:19:59.721Z,1.78
2022-08-03T04:21:02.520Z,3.45
2022-08-03T04:22:05.170Z,2.94
2022-08-03T04:23:15.411Z,1.01
2022-08-03T04:24:12.448Z,1.47
2022-08-03T04:25:15.211Z,1.81
2022-08-03T04:26:17.886Z,1.96
2022-08-03T04:27:20.662Z,3.22
2022-08-03T04:28:30.425Z,1.76
2022-08-03T04:29:27.836Z,2.39
2022-08-03T04:30:30.516Z,1.74
2022-08-03T04:31:33.376Z,1.90
2022-08-03T04:32:36.163Z,2.08
2022-08-03T04:33:38.835Z,3.14
2022-08-03T04:34:41.489Z,2.81
2022-08-03T04:36:00.998Z,1.67
2022-08-03T04:36:48.677Z,1.94
2022-08-03T04:37:51.450Z,1.72
2022-08-03T04:38:54.218Z,2.42
2022-08-03T04:39:57.727Z,1.90
2022-08-03T04:41:00.687Z,1.77
2022-08-03T04:42:08.407Z,2.17
2022-08-03T04:43:07.678Z,2.00
2022-08-03T04:44:10.322Z,1.55
2022-08-03T04:45:13.631Z,2.23
2022-08-03T04:46:16.490Z,3.62
2022-08-03T04:47:19.165Z,1.78
2022-08-03T04:48:22.041Z,2.00
2022-08-03T04:49:24.899Z,1.40
2022-08-03T04:50:27.581Z,2.47
2022-08-03T04:51:30.458Z,1.90
2022-08-03T04:52:33.232Z,1.71
2022-08-03T04:53:36.311Z,1.46
2022-08-03T04:54:40.204Z,2.41
2022-08-03T04:55:42.989Z,1.68
2022-08-03T04:56:45.749Z,1.99
2022-08-03T04:57:48.522Z,2.67
2022-08-03T04:58:51.189Z,2.02
2022-08-03T04:59:58.246Z,1.61
2022-08-03T05:00:58.267Z,2.14
2022-08-03T05:02:01.340Z,2.02
2022-08-03T05:03:04.121Z,1.46
2022-08-03T05:04:08.341Z,2.11
2022-08-03T05:05:11.106Z,1.33
2022-08-03T05:06:13.880Z,1.95
2022-08-03T05:07:24.132Z,2.59
2022-08-03T05:08:27.779Z,1.69
2022-08-03T05:09:50.706Z,2.82
2022-08-03T05:10:31.106Z,2.14
2022-08-03T05:11:33.887Z,1.60
2022-08-03T05:12:36.861Z,1.75
2022-08-03T05:13:39.935Z,1.84
2022-08-03T05:14:42.812Z,2.35
2022-08-03T05:15:45.520Z,2.54
2022-08-03T05:16:48.351Z,1.39
2022-08-03T05:17:52.662Z,2.12
2022-08-03T05:18:55.540Z,2.57
2022-08-03T05:19:58.525Z,1.95
2022-08-03T05:21:01.389Z,1.73
2022-08-03T05:22:04.267Z,1.89
2022-08-03T05:23:06.940Z,3.52
2022-08-03T05:24:09.704Z,2.74
2022-08-03T05:25:16.904Z,2.05
2022-08-03T05:26:17.098Z,1.69
2022-08-03T05:27:20.067Z,2.15
2022-08-03T05:28:23.152Z,2.50
2022-08-03T05:29:26.025Z,2.95
2022-08-03T05:30:33.807Z,2.93
2022-08-03T05:31:33.411Z,1.91
2022-08-03T05:32:36.389Z,1.59
2022-08-03T05:33:39.474Z,1.29
2022-08-03T05:34:42.655Z,1.88
2022-08-03T05:36:01.669Z,1.45
2022-08-03T05:36:50.152Z,1.98
2022-08-03T05:37:54.975Z,1.27
2022-08-03T05:39:02.247Z,3.07
2022-08-03T05:40:02.148Z,1.37
2022-08-03T05:41:20.552Z,1.82
2022-08-03T05:42:09.403Z,3.93
2022-08-03T05:43:12.103Z,2.72
2022-08-03T05:44:14.976Z,1.31
2022-08-03T05:45:17.782Z,3.07
2022-08-03T05:46:20.525Z,2.52
2022-08-03T05:47:23.293Z,1.87
2022-08-03T05:48:25.968Z,2.16
2022-08-03T05:49:28.900Z,1.65
2022-08-03T05:50:31.719Z,1.59
2022-08-03T05:51:35.015Z,1.82
2022-08-03T05:52:37.968Z,1.69
2022-08-03T05:53:40.844Z,1.63
2022-08-03T05:54:57.011Z,1.89
2022-08-03T05:55:52.620Z,2.11
2022-08-03T05:56:52.660Z,1.61
2022-08-03T05:57:56.821Z,3.73
2022-08-03T05:59:07.355Z,1.83
2022-08-03T06:00:04.338Z,1.59
2022-08-03T06:01:07.592Z,1.69
2022-08-03T06:02:10.496Z,1.45
2022-08-03T06:03:13.579Z,1.68
2022-08-03T06:04:16.560Z,1.80
2022-08-03T06:05:19.541Z,1.68
2022-08-03T06:06:22.622Z,1.32
2022-08-03T06:07:25.803Z,2.07
2022-08-03T06:08:29.074Z,1.51
2022-08-03T06:10:33.665Z,3.41
2022-08-03T06:10:38.334Z,2.23
2022-08-03T06:11:41.084Z,2.52
2022-08-03T06:12:43.663Z,1.85
2022-08-03T06:13:46.314Z,1.93
2022-08-03T06:14:49.612Z,1.86
2022-08-03T06:15:52.372Z,1.98
2022-08-03T06:16:55.145Z,2.70
2022-08-03T06:18:01.764Z,2.02
2022-08-03T06:19:02.537Z,2.48
2022-08-03T06:20:05.624Z,2.00
2022-08-03T06:21:14.075Z,2.74
2022-08-03T06:22:13.307Z,2.69
2022-08-03T06:23:18.556Z,1.63
2022-08-03T06:24:21.821Z,1.64
2022-08-03T06:25:26.230Z,2.00
2022-08-03T06:26:29.525Z,1.95
2022-08-03T06:27:37.377Z,2.60
2022-08-03T06:28:52.715Z,1.83
2022-08-03T06:29:41.318Z,2.27
2022-08-03T06:30:44.499Z,2.41
2022-08-03T06:31:47.585Z,1.57
2022-08-03T06:32:51.932Z,2.23
2022-08-03T06:34:34.351Z,1.89
2022-08-03T06:34:59.190Z,1.76
2022-08-03T06:36:02.147Z,2.12
2022-08-03T06:37:05.122Z,2.65
2022-08-03T06:38:08.101Z,2.57
2022-08-03T06:39:11.507Z,1.99
2022-08-03T06:40:14.470Z,2.76
2022-08-03T06:41:17.450Z,1.95
2022-08-03T06:42:20.623Z,2.31
2022-08-03T06:43:24.621Z,2.06
2022-08-03T06:44:27.807Z,2.71
2022-08-03T06:45:31.689Z,1.24
2022-08-03T06:46:35.290Z,1.83
2022-08-03T06:47:38.500Z,2.26
2022-08-03T06:48:43.328Z,2.19
2022-08-03T06:50:05.035Z,2.05
2022-08-03T06:50:50.698Z,2.61
2022-08-03T06:52:03.302Z,2.86
2022-08-03T06:52:57.873Z,1.83
2022-08-03T06:54:00.754Z,3.44
2022-08-03T06:55:03.926Z,2.06
2022-08-03T06:56:06.852Z,2.27
2022-08-03T06:57:09.671Z,2.09
2022-08-03T06:58:12.358Z,1.83
2022-08-03T07:00:10.700Z,1.38
2022-08-03T07:00:19.539Z,2.41
2022-08-03T07:01:22.258Z,1.42
2022-08-03T07:02:28.290Z,2.16
2022-08-03T07:03:29.790Z,2.97
2022-08-03T07:04:32.459Z,3.05
2022-08-03T07:05:35.361Z,2.95
2022-08-03T07:06:38.220Z,1.90
2022-08-03T07:07:41.091Z,1.71
2022-08-03T07:08:44.163Z,2.66
2022-08-03T07:09:57.862Z,4.10
2022-08-03T07:10:51.348Z,3.21
2022-08-03T07:11:54.324Z,3.82
2022-08-03T07:12:57.506Z,2.40
2022-08-03T07:14:00.278Z,1.95
2022-08-03T07:15:03.678Z,2.18
2022-08-03T07:16:06.450Z,3.06
2022-08-03T07:17:11.946Z,3.00
2022-08-03T07:18:13.718Z,3.84
2022-08-03T07:19:16.703Z,2.57
2022-08-03T07:20:19.777Z,3.94
2022-08-03T07:21:22.764Z,6.14
2022-08-03T07:22:25.624Z,8.78
2022-08-03T07:23:28.600Z,12.62
2022-08-03T07:24:31.588Z,9.54
2022-08-03T07:25:34.669Z,12.29
2022-08-03T07:26:39.177Z,11.38
2022-08-03T07:27:42.248Z,13.86
2022-08-03T07:28:45.334Z,12.41
2022-08-03T07:29:48.008Z,15.83
2022-08-03T07:30:50.994Z,11.97
2022-08-03T07:31:53.863Z,12.68
2022-08-03T07:32:56.522Z,12.49
2022-08-03T07:33:59.607Z,14.75
2022-08-03T07:35:02.376Z,14.82
2022-08-03T07:36:06.789Z,12.93
2022-08-03T07:37:09.767Z,14.76
2022-08-03T07:38:12.949Z,13.63
2022-08-03T07:39:17.612Z,13.74
2022-08-03T07:40:21.053Z,14.15
2022-08-03T07:41:23.729Z,15.45
2022-08-03T07:42:26.598Z,15.85
2022-08-03T07:43:29.472Z,11.45
2022-08-03T07:44:32.442Z,12.62
2022-08-03T07:45:35.319Z,13.54
2022-08-03T07:46:38.304Z,12.38
2022-08-03T07:47:41.183Z,12.02
2022-08-03T07:48:45.582Z,18.67
2022-08-03T07:49:48.248Z,13.08
2022-08-03T07:50:51.228Z,15.08
2022-08-03T07:51:53.908Z,14.88
2022-08-03T07:52:56.572Z,14.33
2022-08-03T07:53:59.342Z,13.98
2022-08-03T07:55:02.210Z,11.40
2022-08-03T07:56:05.729Z,15.27
2022-08-03T07:57:09.598Z,11.80
2022-08-03T07:58:12.737Z,12.24
2022-08-03T07:59:15.553Z,12.57
2022-08-03T08:00:18.530Z,13.55
2022-08-03T08:01:22.036Z,16.57
2022-08-03T08:02:24.689Z,11.96
2022-08-03T08:03:27.671Z,10.25
2022-08-03T08:04:32.177Z,9.97
2022-08-03T08:05:35.362Z,11.16
2022-08-03T08:06:38.134Z,12.78
2022-08-03T08:07:42.144Z,12.49
2022-08-03T08:08:44.910Z,13.69
2022-08-03T08:09:47.575Z,11.27
2022-08-03T08:10:58.324Z,10.75
2022-08-03T08:11:54.557Z,10.77
2022-08-03T08:12:57.325Z,10.85
2022-08-03T08:14:00.105Z,9.98
2022-08-03T08:15:02.981Z,11.72
2022-08-03T08:16:05.748Z,13.76
2022-08-03T08:17:08.423Z,12.83
2022-08-03T08:18:11.187Z,11.52
2022-08-03T08:19:14.269Z,13.01
2022-08-03T08:20:18.859Z,11.89
2022-08-03T08:21:22.278Z,10.41
2022-08-03T08:22:30.717Z,11.03
2022-08-03T08:23:41.921Z,11.26
2022-08-03T08:24:34.279Z,13.81
2022-08-03T08:25:37.454Z,12.42
2022-08-03T08:26:40.433Z,11.60
2022-08-03T08:28:30.619Z,10.92
2022-08-03T08:28:47.510Z,15.81
2022-08-03T08:29:55.286Z,13.28
2022-08-03T08:30:54.924Z,14.76
2022-08-03T08:31:57.772Z,12.43
2022-08-03T08:33:00.650Z,11.78
2022-08-03T08:34:04.817Z,12.19
2022-08-03T08:35:07.628Z,11.39
2022-08-03T08:36:15.044Z,11.34
2022-08-03T08:37:14.608Z,10.49
2022-08-03T08:38:17.304Z,12.25
2022-08-03T08:39:20.046Z,14.19
2022-08-03T08:40:22.619Z,13.01
2022-08-03T08:41:25.489Z,8.58
2022-08-03T08:42:29.698Z,9.18
2022-08-03T08:43:32.259Z,10.19
2022-08-03T08:44:34.831Z,13.72
2022-08-03T08:45:37.499Z,11.78
2022-08-03T08:46:40.276Z,12.04
2022-08-03T08:47:50.886Z,12.71
2022-08-03T08:48:47.365Z,11.77
2022-08-03T08:50:08.821Z,13.54
2022-08-03T08:50:54.027Z,13.67
2022-08-03T08:52:01.260Z,11.25
2022-08-03T08:53:01.003Z,12.52
2022-08-03T08:54:03.771Z,12.17
2022-08-03T08:55:06.457Z,13.80
2022-08-03T08:56:09.217Z,10.43
2022-08-03T08:57:33.101Z,13.79
2022-08-03T08:58:20.926Z,10.79
2022-08-03T08:59:20.306Z,11.12
2022-08-03T09:00:22.965Z,11.50
2022-08-03T09:01:25.727Z,10.64
2022-08-03T09:02:28.419Z,10.26
2022-08-03T09:03:31.294Z,11.39
2022-08-03T09:04:34.059Z,12.25
2022-08-03T09:05:55.374Z,12.24
2022-08-03T09:06:40.928Z,10.71
2022-08-03T09:07:43.600Z,10.02
2022-08-03T09:08:46.168Z,9.89
2022-08-03T09:10:10.745Z,12.01
2022-08-03T09:10:53.051Z,11.22
2022-08-03T09:12:08.998Z,12.48
2022-08-03T09:13:00.017Z,11.53
2022-08-03T09:14:02.996Z,11.51
2022-08-03T09:15:16.887Z,11.47
2022-08-03T09:16:10.087Z,10.35
2022-08-03T09:17:17.334Z,11.33
2022-08-03T09:18:16.957Z,11.12
2022-08-03T09:19:19.729Z,13.21
2022-08-03T09:20:22.393Z,10.14
2022-08-03T09:21:33.513Z,11.53
2022-08-03T09:22:29.382Z,12.19
2022-08-03T09:23:59.788Z,10.88
2022-08-03T09:24:43.468Z,13.42
2022-08-03T09:25:40.350Z,15.69
2022-08-03T09:26:43.028Z,15.74
2022-08-03T09:27:45.700Z,16.05
2022-08-03T09:28:57.903Z,12.61
2022-08-03T09:29:52.567Z,13.30
2022-08-03T09:30:55.244Z,14.82
2022-08-03T09:31:59.387Z,15.70
2022-08-03T09:33:02.118Z,10.09
2022-08-03T09:34:05.104Z,10.55
2022-08-03T09:35:09.493Z,12.67
2022-08-03T09:36:11.967Z,12.93
2022-08-03T09:37:14.987Z,15.34
2022-08-03T09:38:17.819Z,13.79
2022-08-03T09:39:41.275Z,12.57
2022-08-03T09:40:24.807Z,11.82
2022-08-03T09:41:27.478Z,11.63
2022-08-03T09:42:30.047Z,9.38
2022-08-03T09:43:32.807Z,10.87
2022-08-03T09:44:35.575Z,9.58
2022-08-03T09:45:38.344Z,9.03
2022-08-03T09:46:41.020Z,8.95
2022-08-03T09:47:45.334Z,8.13
2022-08-03T09:48:47.905Z,7.80
2022-08-03T09:49:50.566Z,6.97
2022-08-03T09:50:58.797Z,4.25
2022-08-03T09:52:33.682Z,5.09
2022-08-03T09:53:01.846Z,5.64
2022-08-03T09:54:06.777Z,4.92
2022-08-03T09:56:31.118Z,4.31
2022-08-03T09:56:34.146Z,4.56
2022-08-03T09:57:17.503Z,4.92
2022-08-03T09:58:20.119Z,3.74
2022-08-03T09:59:22.785Z,4.18
2022-08-03T10:00:25.459Z,3.36
2022-08-03T10:01:28.311Z,5.12
2022-08-03T10:02:31.008Z,3.72
2022-08-03T10:03:33.678Z,2.34
2022-08-03T10:04:36.348Z,2.86
2022-08-03T10:05:38.906Z,4.51
2022-08-03T10:06:41.699Z,9.22
2022-08-03T10:07:46.053Z,3.24
2022-08-03T10:08:48.362Z,3.11
2022-08-03T10:09:51.125Z,2.91
2022-08-03T10:10:53.820Z,3.10
2022-08-03T10:11:56.367Z,3.72
2022-08-03T10:12:59.043Z,4.47
2022-08-03T10:14:01.759Z,4.37
2022-08-03T10:15:04.364Z,4.14
2022-08-03T10:16:22.240Z,3.10
2022-08-03T10:17:11.350Z,3.53
2022-08-03T10:18:14.021Z,4.83
2022-08-03T10:19:16.789Z,4.25
2022-08-03T10:20:19.458Z,4.03
2022-08-03T10:21:22.130Z,4.49
2022-08-03T10:22:24.909Z,2.52
2022-08-03T10:23:28.704Z,2.48
2022-08-03T10:24:32.205Z,2.79
2022-08-03T10:25:34.861Z,3.14
2022-08-03T10:26:37.636Z,3.46
2022-08-03T10:27:41.841Z,4.51
2022-08-03T10:28:45.589Z,4.20
2022-08-03T10:29:48.311Z,3.57
2022-08-03T10:30:50.981Z,4.94
2022-08-03T10:31:57.311Z,4.88
2022-08-03T10:32:57.649Z,4.75
2022-08-03T10:34:00.418Z,6.38
2022-08-03T10:35:04.071Z,4.64
2022-08-03T10:36:07.403Z,3.83
2022-08-03T10:37:10.367Z,3.38
2022-08-03T10:38:13.147Z,3.21
2022-08-03T10:39:16.096Z,3.90
2022-08-03T10:40:39.592Z,3.90
2022-08-03T10:41:23.507Z,5.87
2022-08-03T10:42:26.312Z,4.51
2022-08-03T10:43:29.162Z,5.08
2022-08-03T10:44:31.824Z,4.63
2022-08-03T10:45:34.932Z,4.78
2022-08-03T10:46:41.486Z,4.01
2022-08-03T10:47:41.877Z,3.86
2022-08-03T10:48:44.650Z,3.69
2022-08-03T10:49:47.163Z,3.78
2022-08-03T10:50:49.888Z,4.52
2022-08-03T10:51:54.429Z,4.56
2022-08-03T10:52:56.768Z,5.15
2022-08-03T10:53:59.539Z,2.88
2022-08-03T10:55:07.764Z,4.89
2022-08-03T10:56:07.945Z,5.34
2022-08-03T10:57:14.394Z,4.18
2022-08-03T10:58:15.745Z,3.19
2022-08-03T10:59:22.990Z,3.93
2022-08-03T11:00:24.465Z,4.39
2022-08-03T11:01:27.039Z,4.53
2022-08-03T11:02:31.448Z,5.56
2022-08-03T11:03:34.121Z,3.08
2022-08-03T11:04:36.892Z,3.57
2022-08-03T11:05:39.768Z,3.59
2022-08-03T11:06:43.652Z,3.71
2022-08-03T11:07:46.228Z,2.31
2022-08-03T11:08:50.448Z,2.39
2022-08-03T11:09:53.207Z,3.02
2022-08-03T11:10:55.881Z,3.09
2022-08-03T11:11:58.547Z,4.88
2022-08-03T11:13:01.421Z,3.60
2022-08-03T11:14:03.987Z,3.43
2022-08-03T11:15:07.171Z,3.32
2022-08-03T11:16:16.117Z,4.31
2022-08-03T11:17:14.824Z,5.64
2022-08-03T11:18:17.539Z,4.34
2022-08-03T11:19:20.304Z,4.57
2022-08-03T11:20:23.703Z,3.63
2022-08-03T11:21:30.362Z,2.80
2022-08-03T11:22:30.783Z,4.43
2022-08-03T11:24:04.464Z,3.41
2022-08-03T11:24:37.757Z,6.11
2022-08-03T11:25:54.941Z,7.45
2022-08-03T11:26:44.846Z,4.01
2022-08-03T11:27:47.506Z,3.95
2022-08-03T11:28:50.381Z,4.48
2022-08-03T11:29:53.145Z,5.08
2022-08-03T11:30:55.817Z,7.11
2022-08-03T11:31:58.495Z,5.61
2022-08-03T11:33:01.153Z,4.28
2022-08-03T11:34:03.928Z,3.72
2022-08-03T11:35:06.601Z,3.96
2022-08-03T11:36:09.276Z,6.85
2022-08-03T11:37:12.097Z,4.00
2022-08-03T11:38:14.727Z,5.74
2022-08-03T11:39:17.387Z,5.32
2022-08-03T11:40:20.059Z,3.68
2022-08-03T11:41:22.716Z,5.53
2022-08-03T11:42:25.495Z,3.75
2022-08-03T11:43:31.056Z,4.62
2022-08-03T11:44:32.230Z,4.61
2022-08-03T11:45:34.739Z,4.82
2022-08-03T11:46:37.402Z,5.97
2022-08-03T11:47:50.234Z,5.42
2022-08-03T11:48:44.177Z,5.02
2022-08-03T11:49:46.946Z,5.19
2022-08-03T11:50:49.711Z,4.99
2022-08-03T11:51:52.490Z,5.85
2022-08-03T11:52:55.267Z,3.95
2022-08-03T11:53:58.051Z,3.90
2022-08-03T11:55:00.809Z,5.35
2022-08-03T11:56:03.581Z,3.84
2022-08-03T11:57:07.687Z,6.75
2022-08-03T11:59:19.416Z,4.20
2022-08-03T11:59:20.338Z,3.75
2022-08-03T12:00:18.864Z,4.42
2022-08-03T12:01:23.207Z,5.05
2022-08-03T12:02:25.740Z,5.19
2022-08-03T12:03:28.476Z,5.20
2022-08-03T12:04:31.193Z,4.30
2022-08-03T12:05:33.770Z,4.38
2022-08-03T12:06:36.526Z,3.76
2022-08-03T12:08:04.071Z,3.90
2022-08-03T12:08:43.606Z,4.06
2022-08-03T12:09:46.282Z,4.48
2022-08-03T12:10:48.842Z,4.75
2022-08-03T12:11:59.401Z,4.48
2022-08-03T12:12:55.611Z,3.64
2022-08-03T12:14:48.420Z,4.70
2022-08-03T12:15:02.591Z,3.99
2022-08-03T12:16:05.263Z,5.41
2022-08-03T12:17:07.824Z,6.42
2022-08-03T12:18:11.028Z,4.31
2022-08-03T12:19:13.688Z,5.48
2022-08-03T12:20:16.252Z,5.42
2022-08-03T12:21:18.937Z,6.47
2022-08-03T12:22:21.811Z,5.00
2022-08-03T12:23:24.465Z,3.59
2022-08-03T12:24:27.242Z,5.03
2022-08-03T12:25:39.298Z,8.31
2022-08-03T12:26:34.018Z,5.43
2022-08-03T12:27:36.687Z,4.20
2022-08-03T12:28:44.177Z,2.88
2022-08-03T12:29:43.557Z,3.97
2022-08-03T12:30:47.657Z,4.16
2022-08-03T12:31:50.537Z,7.13
2022-08-03T12:32:53.307Z,3.95
2022-08-03T12:33:55.889Z,4.00
2022-08-03T12:35:00.099Z,4.05
2022-08-03T12:36:02.747Z,5.36
2022-08-03T12:37:05.322Z,6.35
2022-08-03T12:38:09.442Z,6.24
2022-08-03T12:39:12.012Z,4.41
2022-08-03T12:40:19.619Z,10.23
2022-08-03T12:41:18.967Z,6.77
2022-08-03T12:42:21.967Z,4.76
2022-08-03T12:43:24.823Z,5.29
2022-08-03T12:44:27.691Z,3.57
2022-08-03T12:45:30.362Z,6.24
2022-08-03T12:46:33.049Z,3.88
2022-08-03T12:47:35.598Z,4.72
2022-08-03T12:48:38.378Z,5.09
2022-08-03T12:49:41.209Z,6.54
2022-08-03T12:50:43.823Z,5.34
2022-08-03T12:51:46.482Z,5.43
2022-08-03T12:52:49.259Z,5.70
2022-08-03T12:53:51.823Z,4.42
2022-08-03T12:54:54.497Z,3.95
2022-08-03T12:56:05.870Z,5.37
2022-08-03T12:57:01.187Z,5.46
2022-08-03T12:58:03.835Z,4.60
2022-08-03T12:59:06.607Z,4.37
2022-08-03T13:00:21.456Z,4.65
2022-08-03T13:01:13.828Z,4.53
2022-08-03T13:02:16.717Z,4.76
2022-08-03T13:03:41.916Z,4.81
2022-08-03T13:04:24.759Z,5.19
2022-08-03T13:05:28.976Z,6.11
2022-08-03T13:06:31.652Z,5.42
2022-08-03T13:07:34.320Z,6.41
2022-08-03T13:08:36.996Z,3.98
2022-08-03T13:09:39.547Z,4.01
2022-08-03T13:10:42.122Z,4.72
2022-08-03T13:12:01.681Z,5.74
2022-08-03T13:12:48.998Z,4.53
2022-08-03T13:13:51.667Z,3.63
2022-08-03T13:14:54.227Z,4.75
2022-08-03T13:15:56.804Z,4.35
2022-08-03T13:16:59.470Z,4.53
2022-08-03T13:18:02.048Z,4.86
2022-08-03T13:19:04.602Z,5.87
2022-08-03T13:20:07.473Z,4.85
2022-08-03T13:21:10.057Z,3.30
2022-08-03T13:22:12.719Z,5.61
2022-08-03T13:23:22.168Z,7.11
2022-08-03T13:24:19.585Z,4.25
2022-08-03T13:25:22.159Z,4.52
2022-08-03T13:26:24.827Z,4.95
2022-08-03T13:28:04.414Z,5.78
2022-08-03T13:28:31.705Z,5.46
2022-08-03T13:29:34.377Z,5.01
2022-08-03T13:30:36.939Z,5.18
2022-08-03T13:31:51.190Z,6.24
2022-08-03T13:32:44.024Z,5.00
2022-08-03T13:33:46.697Z,4.75
2022-08-03T13:34:49.367Z,4.34
2022-08-03T13:35:52.037Z,5.17
2022-08-03T13:37:10.450Z,4.26
2022-08-03T13:37:58.961Z,4.10
2022-08-03T13:39:01.676Z,5.41
2022-08-03T13:40:05.978Z,5.29
2022-08-03T13:41:09.062Z,6.35
2022-08-03T13:42:13.278Z,7.56
2022-08-03T13:43:15.947Z,6.58
2022-08-03T13:44:28.970Z,5.14
2022-08-03T13:45:22.717Z,6.24
2022-08-03T13:46:25.400Z,5.28
2022-08-03T13:47:28.273Z,5.66
2022-08-03T13:48:37.081Z,4.79
2022-08-03T13:49:35.147Z,5.15
2022-08-03T13:50:42.778Z,5.28
2022-08-03T13:51:42.221Z,5.14
2022-08-03T13:52:44.907Z,6.72
2022-08-03T13:53:47.362Z,6.19
2022-08-03T13:54:50.122Z,4.77
2022-08-03T13:55:52.895Z,4.12
2022-08-03T13:57:00.366Z,4.48